Latest Weather Observations for Gold Coast Seaway

IDQ60901

Issued at 4:01 pm EST Thursday 12 December 2019 (issued every 10 minutes, with the page automatically refreshed every 10 minutes)

About weather observations | Map of Brisbane area stations | Latest observations for Brisbane area | Other Formats
Station Details ID: 040764 Name: GOLD COAST SEAWAY Lat: -27.94 Lon: 153.43 Height: 2.98 m
Data from the previous 72 hours. | See also: Recent months at Gold Coast Seaway
Date/Time
EST
Temp
°C
App
Temp
°C
Dew
Point
°C
Rel
Hum
%
Delta-T
°C
Wind Press
QNH
hPa
Press
MSL
hPa
Rain since
9am
mm
Dir  Spd
km/h
Gust
km/h
Spd
kts
Gust
kts
12/04:00pm 27.3 29.5 25.5 90 1.3 NE 24 26 13 14 1008.5 1008.5 0.0
12/03:30pm 27.6 30.0 25.2 87 1.7 NNE 22 26 12 14 1009.0 1009.0 0.0
12/03:00pm 28.1 30.4 25.7 87 1.7 NNE 24 30 13 16 1009.1 1009.1 0.0
12/02:30pm 28.2 29.6 25.4 85 2.0 NNE 28 32 15 17 1009.1 1009.1 0.0
12/02:00pm 28.2 30.1 25.6 86 1.8 NE 26 28 14 15 1009.3 1009.3 0.0
12/01:30pm 28.3 31.0 25.7 86 1.8 NE 22 26 12 14 1009.5 1009.5 0.0
12/01:00pm 28.4 31.2 25.8 86 1.8 NE 22 26 12 14 1009.9 1009.9 0.0
12/12:30pm 28.0 30.0 25.8 88 1.6 NE 26 28 14 15 1010.1 1010.1 0.0
12/12:00pm 26.8 28.6 24.8 89 1.4 NE 24 26 13 14 1010.5 1010.5 0.0
12/11:30am 27.7 31.1 25.3 87 1.7 ENE 17 17 9 9 1010.8 1010.8 0.0
12/11:00am 26.7 30.1 24.0 85 1.9 ENE 13 15 7 8 1011.2 1011.2 0.0
12/10:30am 26.7 29.7 24.7 89 1.4 ENE 17 17 9 9 1011.2 1011.2 0.0
12/10:00am 26.1 30.0 24.3 90 1.2 ENE 11 15 6 8 1011.5 1011.5 0.0
12/09:30am 25.6 28.7 24.2 92 1.0 E 15 17 8 9 1011.5 1011.5 0.0
12/09:00am 25.1 27.9 23.7 92 1.0 E 15 15 8 8 1011.7 1011.7 1.8
12/08:30am 25.6 29.1 22.9 85 1.8 SE 9 11 5 6 1011.7 1011.7 1.8
12/08:00am 25.3 30.0 23.4 89 1.3 ESE 4 11 2 6 1011.5 1011.5 1.8
12/07:30am 24.1 28.3 23.4 96 0.5 ENE 7 9 4 5 1011.5 1011.5 1.8
12/07:00am 24.5 28.4 23.6 95 0.6 NE 9 11 5 6 1011.2 1011.2 1.8
12/06:30am 23.5 27.3 22.8 96 0.5 N 7 9 4 5 1011.0 1011.0 1.8
12/06:00am 22.9 27.5 22.4 97 0.3 NW 2 7 1 4 1010.6 1010.6 1.8
12/05:30am 22.8 27.5 22.0 95 0.5 CALM 0 6 0 3 1010.2 1010.2 1.8
12/05:00am 23.1 24.4 21.7 92 0.9 WNW 17 22 9 12 1009.8 1009.8 1.8
12/04:30am 23.4 24.9 22.0 92 0.9 NW 17 24 9 13 1009.6 1009.6 1.8
12/04:00am 23.6 24.3 22.2 92 0.9 NW 22 30 12 16 1009.2 1009.2 1.8
12/03:30am 23.5 25.8 22.7 95 0.5 NW 15 19 8 10 1009.2 1009.2 1.8
12/03:00am 23.8 26.2 23.0 95 0.5 NNW 15 24 8 13 1008.7 1008.7 1.8
12/02:30am 23.7 25.7 22.3 92 0.9 NNW 15 26 8 14 1008.3 1008.3 1.8
12/02:00am 22.7 20.3 22.5 99 0.1 N 39 54 21 29 1008.6 1008.6 1.8
12/01:45am 22.7 19.1 22.7 100 0.0 NNE 46 59 25 32 1007.0 1007.0 1.8
12/01:30am 22.7 20.4 22.7 100 0.0 NNE 39 46 21 25 1009.0 1009.0 1.8
12/01:28am 22.7 20.8 22.7 100 0.0 NNE 37 44 20 24 1009.1 1009.1 1.8
12/01:00am 22.4 22.0 22.4 100 0.0 N 28 33 15 18 1011.1 1011.1 1.6
12/12:30am 21.8 22.5 21.6 99 0.1 N 20 26 11 14 1012.4 1012.4 1.6
12/12:00am 21.8 23.4 21.5 98 0.2 N 15 22 8 12 1013.5 1013.5 1.4
 
Date/Time
EST
Temp
°C
App
Temp
°C
Dew
Point
°C
Rel
Hum
%
Delta-T
°C
Wind Press
QNH
hPa
Press
MSL
hPa
Rain since
9am
mm
Dir  Spd
km/h
Gust
km/h
Spd
kts
Gust
kts
11/11:30pm 22.5 25.7 22.3 99 0.1 NNE 9 11 5 6 1014.2 1014.2 1.4
11/11:00pm 22.2 25.7 21.9 98 0.2 SE 6 9 3 5 1014.7 1014.7 1.4
11/10:30pm 22.7 23.1 22.4 98 0.2 SE 24 32 13 17 1015.1 1015.1 1.0
11/10:20pm 22.9 23.8 22.6 98 0.2 SE 22 37 12 20 1015.5 1015.5 0.2
11/10:00pm 24.4 27.6 24.4 100 0.0 SSE 15 17 8 9 1015.6 1015.6 0.0
11/09:30pm 24.5 28.9 24.5 100 0.0 E 9 13 5 7 1015.0 1015.0 0.0
11/09:00pm 24.3 29.2 24.3 100 0.0 NW 6 11 3 6 1015.1 1015.1 0.0
11/08:30pm 24.0 29.8 24.0 100 0.0 CALM 0 0 0 0 1013.7 1013.7 0.0
11/08:00pm 24.2 27.3 24.2 100 0.0 N 15 17 8 9 1012.9 1012.9 0.0
11/07:30pm 24.3 27.1 24.3 100 0.0 N 17 19 9 10 1012.5 1012.5 0.0
11/07:00pm 24.4 26.9 24.4 100 0.0 N 19 24 10 13 1011.7 1011.7 0.0
11/06:30pm 24.6 27.1 24.4 99 0.1 N 19 22 10 12 1011.5 1011.5 0.0
11/06:00pm 25.0 26.2 24.5 97 0.3 NNE 26 32 14 17 1011.4 1011.4 0.0
11/05:30pm 25.3 26.3 24.8 97 0.3 NNE 28 32 15 17 1010.6 1010.6 0.0
11/05:00pm 25.8 27.3 24.9 95 0.6 NNE 26 28 14 15 1010.2 1010.2 0.0
11/04:30pm 26.1 27.3 25.1 94 0.7 NNE 28 30 15 16 1009.4 1009.4 0.0
11/04:00pm 26.5 28.2 25.3 93 0.8 NNE 26 30 14 16 1009.8 1009.8 0.0
11/03:30pm 26.9 27.7 25.1 90 1.3 NNE 30 32 16 17 1009.9 1009.9 0.0
11/03:00pm 28.2 29.2 25.4 85 2.0 NNE 30 33 16 18 1010.0 1010.0 0.0
11/02:30pm 28.3 29.2 25.3 84 2.1 NNE 30 35 16 19 1010.4 1010.4 0.0
11/02:00pm 28.8 29.6 25.6 83 2.3 NNE 32 33 17 18 1010.8 1010.8 0.0
11/01:30pm 28.8 30.3 25.6 83 2.3 NE 28 32 15 17 1010.9 1010.9 0.0
11/01:00pm 29.0 31.0 25.2 80 2.7 NNE 24 28 13 15 1011.3 1011.3 0.0
11/12:30pm 28.9 30.2 24.7 78 2.9 NNE 26 28 14 15 1011.5 1011.5 0.0
11/12:00pm 28.5 29.7 24.5 79 2.8 NNE 26 28 14 15 1011.7 1011.7 0.0
11/11:30am 28.8 30.7 25.0 80 2.7 NNE 24 28 13 15 1012.0 1012.0 0.0
11/11:00am 28.8 30.1 25.2 81 2.5 NNE 28 30 15 16 1012.2 1012.2 0.0
11/10:30am 28.7 30.8 25.3 82 2.4 NNE 24 28 13 15 1012.4 1012.4 0.0
11/10:00am 28.4 30.4 25.2 83 2.2 NNE 24 28 13 15 1012.6 1012.6 0.0
11/09:30am 27.2 29.9 24.7 86 1.7 NNE 19 24 10 13 1013.1 1013.1 0.0
11/09:00am 26.7 30.1 24.7 89 1.4 N 15 19 8 10 1013.4 1013.4 0.0
11/08:30am 26.1 29.3 24.3 90 1.2 NNE 15 17 8 9 1013.6 1013.6 0.0
11/08:00am 26.1 29.8 25.1 94 0.7 NNE 15 19 8 10 1014.0 1014.0 0.0
11/07:30am 25.2 29.1 24.2 94 0.7 ENE 11 15 6 8 1014.2 1014.2 0.0
11/07:00am 24.7 29.2 24.0 96 0.5 E 7 9 4 5 1014.3 1014.3 0.0
11/06:30am 24.7 29.1 23.8 95 0.6 SSE 7 9 4 5 1014.4 1014.4 0.0
11/06:00am 24.3 27.7 23.3 94 0.7 W 11 15 6 8 1014.1 1014.1 0.0
11/05:30am 23.9 27.6 23.2 96 0.5 NW 9 9 5 5 1013.2 1013.2 0.0
11/05:00am 24.0 27.5 23.5 97 0.3 NW 11 13 6 7 1012.6 1012.6 0.0
11/04:30am 24.2 27.5 23.9 98 0.2 NNW 13 19 7 10 1012.1 1012.1 0.0
11/04:00am 24.5 27.5 24.0 97 0.3 NNW 15 20 8 11 1011.8 1011.8 0.0
11/03:30am 24.6 27.3 24.1 97 0.3 NW 17 24 9 13 1011.8 1011.8 0.0
11/03:00am 24.6 28.4 24.1 97 0.3 WNW 11 15 6 8 1011.9 1011.9 0.0
11/02:30am 24.8 27.6 24.3 97 0.3 NW 17 22 9 12 1011.5 1011.5 0.0
11/02:00am 24.6 27.3 24.1 97 0.3 NW 17 26 9 14 1011.6 1011.6 0.0
11/01:30am 24.0 23.8 24.0 100 0.0 N 32 44 17 24 1011.1 1011.1 0.0
11/01:00am 24.1 23.9 24.1 100 0.0 N 32 35 17 19 1011.2 1011.2 0.0
11/12:30am 24.3 24.9 24.1 99 0.1 N 28 33 15 18 1012.5 1012.5 0.0
11/12:00am 24.3 26.6 24.1 99 0.1 N 19 22 10 12 1014.1 1014.1 0.0
 
Date/Time
EST
Temp
°C
App
Temp
°C
Dew
Point
°C
Rel
Hum
%
Delta-T
°C
Wind Press
QNH
hPa
Press
MSL
hPa
Rain since
9am
mm
Dir  Spd
km/h
Gust
km/h
Spd
kts
Gust
kts
10/11:30pm 24.5 27.8 23.8 96 0.5 N 13 17 7 9 1015.1 1015.1 0.0
10/11:00pm 24.8 27.6 23.6 93 0.8 N 15 19 8 10 1015.3 1015.3 0.0
10/10:30pm 25.0 29.0 23.1 89 1.3 N 7 11 4 6 1016.0 1016.0 0.0
10/10:00pm 24.8 27.7 23.2 91 1.1 SSW 13 24 7 13 1017.3 1017.3 0.0
10/09:30pm 24.2 27.3 22.8 92 0.9 NNW 11 13 6 7 1015.6 1015.6 0.0
10/09:00pm 24.1 27.8 23.2 95 0.6 N 9 13 5 7 1014.8 1014.8 0.0
10/08:30pm 24.3 27.7 24.0 98 0.2 N 13 17 7 9 1014.7 1014.7 0.0
10/08:00pm 24.4 27.3 23.9 97 0.3 N 15 19 8 10 1014.2 1014.2 0.0
10/07:30pm 24.6 26.8 23.9 96 0.5 N 19 20 10 11 1013.8 1013.8 0.0
10/07:00pm 24.7 26.8 23.7 94 0.7 N 19 22 10 12 1013.9 1013.9 0.0
10/06:30pm 25.0 26.1 23.6 92 1.0 N 24 28 13 15 1013.5 1013.5 0.0
10/06:00pm 25.2 25.5 23.6 91 1.1 N 28 32 15 17 1013.1 1013.1 0.0
10/05:30pm 25.7 25.8 23.9 90 1.2 N 30 33 16 18 1012.9 1012.9 0.0
10/05:00pm 26.1 26.2 24.0 88 1.4 N 30 33 16 18 1012.6 1012.6 0.0
10/04:30pm 26.5 26.2 23.8 85 1.9 NNE 32 37 17 20 1012.4 1012.4 0.0
10/04:00pm 26.6 25.9 23.5 83 2.1 NNE 33 37 18 20 1012.5 1012.5 0.0
10/03:30pm 27.5 27.3 24.4 83 2.1 NNE 33 39 18 21 1012.8 1012.8 0.0
10/03:00pm 27.8 27.9 24.6 83 2.2 NNE 32 39 17 21 1013.2 1013.2 0.0
10/02:30pm 28.3 28.2 24.5 80 2.6 NNE 33 37 18 20 1013.5 1013.5 0.0
10/02:00pm 28.8 29.2 25.0 80 2.7 NNE 32 37 17 20 1013.8 1013.8 0.0
10/01:30pm 28.9 29.3 25.3 81 2.5 NNE 33 37 18 20 1014.2 1014.2 0.0
10/01:00pm 29.1 29.9 25.7 82 2.4 NNE 32 35 17 19 1014.7 1014.7 0.0
10/12:30pm 28.7 29.3 25.3 82 2.4 NNE 32 35 17 19 1015.1 1015.1 0.0
10/12:00pm 28.9 30.2 25.9 84 2.1 NE 30 33 16 18 1015.6 1015.6 0.0
10/11:30am 28.0 29.9 25.6 87 1.7 NE 26 30 14 16 1015.9 1015.9 0.0
10/11:00am 28.7 31.2 25.9 85 2.0 NE 24 30 13 16 1016.5 1016.5 0.0
10/10:30am 30.0 33.1 24.2 71 4.0 NNW 15 26 8 14 1017.0 1017.0 0.0
10/10:00am 28.8 31.5 24.1 76 3.3 NNW 17 24 9 13 1017.3 1017.3 0.0
10/09:30am 27.7 29.4 23.1 76 3.1 NW 19 22 10 12 1017.6 1017.6 0.0
10/09:00am 27.6 29.9 23.4 78 2.9 NNW 17 28 9 15 1017.6 1017.6 0.0
10/08:30am 27.1 29.9 23.6 81 2.4 NNW 15 26 8 14 1017.8 1017.8 0.0
10/08:00am 26.1 29.5 24.1 89 1.4 N 13 17 7 9 1017.8 1017.8 0.0
10/07:30am 25.4 29.2 24.0 92 1.0 N 11 15 6 8 1017.9 1017.9 0.0
10/07:00am 24.5 29.7 23.6 95 0.6 WNW 2 6 1 3 1017.9 1017.9 0.0
10/06:30am 23.6 28.5 23.6 100 0.0 WNW 4 7 2 4 1017.9 1017.9 0.0
10/06:00am 23.1 28.4 23.1 100 0.0 CALM 0 0 0 0 1017.9 1017.9 0.0
10/05:30am 22.3 27.2 22.3 100 0.0 CALM 0 0 0 0 1017.7 1017.7 0.0
10/05:00am 21.5 24.8 21.5 100 0.0 WNW 6 7 3 4 1017.6 1017.6 0.0
10/04:30am 21.4 25.1 21.4 100 0.0 WNW 4 7 2 4 1017.5 1017.5 0.0
10/04:00am 21.6 26.1 21.6 100 0.0 CALM 0 0 0 0 1017.4 1017.4 0.0
10/03:30am 21.5 25.9 21.3 99 0.1 CALM 0 0 0 0 1017.3 1017.3 0.0
10/03:00am 21.6 25.7 21.6 100 0.0 NNW 2 6 1 3 1017.2 1017.2 0.0
10/02:30am 22.1 26.5 22.1 100 0.0 NNW 2 7 1 4 1017.2 1017.2 0.0
10/02:00am 22.2 27.0 22.2 100 0.0 CALM 0 0 0 0 1017.4 1017.4 0.0
10/01:30am 22.7 27.8 22.7 100 0.0 CALM 0 0 0 0 1017.6 1017.6 0.0
10/01:00am 22.1 26.9 22.1 100 0.0 CALM 0 0 0 0 1017.9 1017.9 0.0
10/12:30am 22.7 27.8 22.7 100 0.0 CALM 0 0 0 0 1018.2 1018.2 0.0
10/12:00am 23.3 28.7 23.3 100 0.0 CALM 0 0 0 0 1018.5 1018.5 0.0
 
Date/Time
EST
Temp
°C
App
Temp
°C
Dew
Point
°C
Rel
Hum
%
Delta-T
°C
Wind Press
QNH
hPa
Press
MSL
hPa
Rain since
9am
mm
Dir  Spd
km/h
Gust
km/h
Spd
kts
Gust
kts
09/11:30pm 23.4 27.8 23.4 100 0.0 NNW 6 7 3 4 1018.9 1018.9 0.0
09/11:00pm 23.4 28.9 23.4 100 0.0 CALM 0 0 0 0 1019.1 1019.1 0.0
09/10:30pm 24.0 29.8 24.0 100 0.0 CALM 0 0 0 0 1019.3 1019.3 0.0
09/10:00pm 24.0 28.7 24.0 100 0.0 NNW 6 7 3 4 1019.6 1019.6 0.0
09/09:30pm 24.0 28.5 24.0 100 0.0 N 7 9 4 5 1019.7 1019.7 0.0
09/09:00pm 24.2 27.7 24.2 100 0.0 NNE 13 15 7 8 1019.6 1019.6 0.0
09/08:30pm 24.4 28.0 24.4 100 0.0 NE 13 15 7 8 1019.6 1019.6 0.0
09/08:00pm 24.5 27.8 24.5 100 0.0 NE 15 17 8 9 1019.5 1019.5 0.0
09/07:30pm 24.6 28.6 24.4 99 0.1 NE 11 13 6 7 1019.4 1019.4 0.0
09/07:00pm 24.7 28.8 24.5 99 0.1 NE 11 13 6 7 1019.3 1019.3 0.0
09/06:30pm 24.9 29.4 24.6 98 0.2 ENE 9 11 5 6 1019.2 1019.2 0.0
09/06:00pm 25.0 28.3 24.5 97 0.3 E 15 17 8 9 1019.0 1019.0 0.0
09/05:30pm 25.2 28.1 24.5 96 0.5 E 17 20 9 11 1018.8 1018.8 0.0
09/05:00pm 25.4 27.9 24.5 95 0.6 E 19 20 10 11 1018.7 1018.7 0.0
09/04:30pm 25.8 28.8 24.6 93 0.8 ESE 17 19 9 10 1018.8 1018.8 0.0

Latest Capital City Observations: Canberra | Sydney | Melbourne | Brisbane | Adelaide | Perth | Hobart | Darwin

Other formats

Comma delimited format used in spreadsheet applications
http://www.bom.gov.au/fwo/IDQ60901/IDQ60901.94580.axf

JavaScript Object Notation format (JSON) in row-major order
http://www.bom.gov.au/fwo/IDQ60901/IDQ60901.94580.json

Data quality

Most of these data are generated automatically and are frequently updated. Quality checks on data are not normally performed. It is possible for incorrect values to appear. Refer to information at About Latest Weather Observations and please check the disclaimer before using these data.